EBLG/LGG METAR and TAF weather

Enter ICAO airport designator
Station Type Date Time Source
EBLG METAR 2022/05/24 12:20 UTC NOAA

EBLG 241220Z 24014KT 9999 FEW026 16/06 Q1008 NOSIG


Station Type Date Time Source
EBLG Decoded METAR 2022/05/24 12:20 UTC NOAA

Bierset, Belgium (EBLG) 50-39N 005-27E 178M
May 24, 2022 - 08:20 AM EDT / 2022.05.24 1220 UTC
Wind: from the WSW (240 degrees) at 16 MPH (14 KT):0
Visibility: greater than 7 mile(s):0
Sky conditions: mostly clear
Temperature: 60 F (16 C)
Dew Point: 42 F (6 C)
Relative Humidity: 51%
Pressure (altimeter): 29.77 in. Hg (1008 hPa)
ob: EBLG 241220Z 24014KT 9999 FEW026 16/06 Q1008 NOSIG
cycle: 12

Station Type Date Time Source
EBLG TAF 2022/05/24 12:27 UTC NOAA

TAF EBLG 241110Z 2412/2518 24012KT 9999 FEW025CB SCT035
TEMPO 2412/2418 25015G25KT 4000 SHRA
BECMG 2510/2512 24015G25KT

Example: see airport list